sensor_id;sensor_type;location;lat;lon;timestamp;temperature;humidity
2054;DHT22;1032;52.542;13.440;2023-04-24T00:02:19;14.20;99.90
2054;DHT22;1032;52.542;13.440;2023-04-24T00:04:47;14.60;99.90
2054;DHT22;1032;52.542;13.440;2023-04-24T00:07:15;14.50;99.90
2054;DHT22;1032;52.542;13.440;2023-04-24T00:09:42;14.30;99.90
2054;DHT22;1032;52.542;13.440;2023-04-24T00:12:09;14.10;99.90
2054;DHT22;1032;52.542;13.440;2023-04-24T00:14:35;14.10;99.90
2054;DHT22;1032;52.542;13.440;2023-04-24T00:17:02;14.30;99.90
2054;DHT22;1032;52.542;13.440;2023-04-24T00:19:29;14.10;99.90
2054;DHT22;1032;52.542;13.440;2023-04-24T00:21:55;14.30;99.90
2054;DHT22;1032;52.542;13.440;2023-04-24T00:24:23;14.10;99.90
2054;DHT22;1032;52.542;13.440;2023-04-24T00:26:50;14.20;99.90
2054;DHT22;1032;52.542;13.440;2023-04-24T00:29:17;14.10;99.90
2054;DHT22;1032;52.542;13.440;2023-04-24T00:31:43;14.00;99.90
2054;DHT22;1032;52.542;13.440;2023-04-24T00:34:10;14.30;99.90
2054;DHT22;1032;52.542;13.440;2023-04-24T00:36:37;14.10;99.90
2054;DHT22;1032;52.542;13.440;2023-04-24T00:39:03;14.30;99.90
2054;DHT22;1032;52.542;13.440;2023-04-24T00:41:31;13.70;99.90
2054;DHT22;1032;52.542;13.440;2023-04-24T00:43:58;13.90;99.90
2054;DHT22;1032;52.542;13.440;2023-04-24T00:46:25;14.00;99.90
2054;DHT22;1032;52.542;13.440;2023-04-24T00:48:52;14.00;99.90
2054;DHT22;1032;52.542;13.440;2023-04-24T00:51:19;14.10;99.90
2054;DHT22;1032;52.542;13.440;2023-04-24T00:53:46;13.80;99.90
2054;DHT22;1032;52.542;13.440;2023-04-24T00:56:13;13.90;99.90
2054;DHT22;1032;52.542;13.440;2023-04-24T00:58:41;14.20;99.90
2054;DHT22;1032;52.542;13.440;2023-04-24T01:01:09;14.10;99.90
2054;DHT22;1032;52.542;13.440;2023-04-24T01:03:37;13.80;99.90
2054;DHT22;1032;52.542;13.440;2023-04-24T01:06:05;14.20;99.90
2054;DHT22;1032;52.542;13.440;2023-04-24T01:08:32;14.20;99.90
2054;DHT22;1032;52.542;13.440;2023-04-24T01:11:03;13.80;99.90
2054;DHT22;1032;52.542;13.440;2023-04-24T01:13:31;13.90;99.90
2054;DHT22;1032;52.542;13.440;2023-04-24T01:16:00;14.00;99.90
2054;DHT22;1032;52.542;13.440;2023-04-24T01:18:27;13.70;99.90
2054;DHT22;1032;52.542;13.440;2023-04-24T01:20:57;13.80;99.90
2054;DHT22;1032;52.542;13.440;2023-04-24T01:23:25;13.70;99.90
2054;DHT22;1032;52.542;13.440;2023-04-24T01:25:52;14.20;99.90
2054;DHT22;1032;52.542;13.440;2023-04-24T01:28:19;14.20;99.90
2054;DHT22;1032;52.542;13.440;2023-04-24T01:30:46;14.00;99.90
2054;DHT22;1032;52.542;13.440;2023-04-24T01:33:12;13.70;99.90
2054;DHT22;1032;52.542;13.440;2023-04-24T01:35:40;13.20;99.90
2054;DHT22;1032;52.542;13.440;2023-04-24T01:38:06;13.50;99.90
2054;DHT22;1032;52.542;13.440;2023-04-24T01:40:36;14.20;99.90
2054;DHT22;1032;52.542;13.440;2023-04-24T01:43:03;13.70;99.90
2054;DHT22;1032;52.542;13.440;2023-04-24T01:45:30;14.20;99.90
2054;DHT22;1032;52.542;13.440;2023-04-24T01:47:56;13.90;99.90
2054;DHT22;1032;52.542;13.440;2023-04-24T01:50:23;13.60;99.90
2054;DHT22;1032;52.542;13.440;2023-04-24T01:52:50;13.60;99.90
2054;DHT22;1032;52.542;13.440;2023-04-24T01:55:16;13.60;99.90
2054;DHT22;1032;52.542;13.440;2023-04-24T01:57:45;13.60;99.90
2054;DHT22;1032;52.542;13.440;2023-04-24T02:00:12;14.20;99.90
2054;DHT22;1032;52.542;13.440;2023-04-24T02:02:40;13.80;99.90
2054;DHT22;1032;52.542;13.440;2023-04-24T02:05:08;13.80;99.90
2054;DHT22;1032;52.542;13.440;2023-04-24T02:07:35;13.90;99.90
2054;DHT22;1032;52.542;13.440;2023-04-24T02:10:02;13.90;99.90
2054;DHT22;1032;52.542;13.440;2023-04-24T02:12:29;13.70;99.90
2054;DHT22;1032;52.542;13.440;2023-04-24T02:14:57;13.70;99.90
2054;DHT22;1032;52.542;13.440;2023-04-24T02:17:24;13.40;99.90
2054;DHT22;1032;52.542;13.440;2023-04-24T02:19:50;13.60;99.90
2054;DHT22;1032;52.542;13.440;2023-04-24T02:22:17;13.70;99.90
2054;DHT22;1032;52.542;13.440;2023-04-24T02:24:44;13.70;99.90
2054;DHT22;1032;52.542;13.440;2023-04-24T02:27:13;13.40;99.90
2054;DHT22;1032;52.542;13.440;2023-04-24T02:29:40;13.60;99.90
2054;DHT22;1032;52.542;13.440;2023-04-24T02:32:08;13.80;99.90
2054;DHT22;1032;52.542;13.440;2023-04-24T02:34:37;13.80;99.90
2054;DHT22;1032;52.542;13.440;2023-04-24T02:37:03;13.60;99.90
2054;DHT22;1032;52.542;13.440;2023-04-24T02:39:30;13.90;99.90
2054;DHT22;1032;52.542;13.440;2023-04-24T02:41:57;13.70;99.90
2054;DHT22;1032;52.542;13.440;2023-04-24T02:44:23;13.50;99.90
2054;DHT22;1032;52.542;13.440;2023-04-24T02:46:50;13.40;99.90
2054;DHT22;1032;52.542;13.440;2023-04-24T02:49:18;13.60;99.90
2054;DHT22;1032;52.542;13.440;2023-04-24T02:51:44;13.60;99.90
2054;DHT22;1032;52.542;13.440;2023-04-24T02:54:11;13.60;99.90
2054;DHT22;1032;52.542;13.440;2023-04-24T02:56:38;13.80;99.90
2054;DHT22;1032;52.542;13.440;2023-04-24T02:59:06;13.80;99.90
2054;DHT22;1032;52.542;13.440;2023-04-24T03:01:33;13.80;99.90
2054;DHT22;1032;52.542;13.440;2023-04-24T03:03:59;13.70;99.90
2054;DHT22;1032;52.542;13.440;2023-04-24T03:06:27;13.70;99.90
2054;DHT22;1032;52.542;13.440;2023-04-24T03:08:54;13.70;99.90
2054;DHT22;1032;52.542;13.440;2023-04-24T03:11:21;13.70;99.90
2054;DHT22;1032;52.542;13.440;2023-04-24T03:13:47;13.40;99.90
2054;DHT22;1032;52.542;13.440;2023-04-24T03:16:14;13.30;99.90
2054;DHT22;1032;52.542;13.440;2023-04-24T03:18:40;13.90;99.90
2054;DHT22;1032;52.542;13.440;2023-04-24T03:21:08;13.80;99.90
2054;DHT22;1032;52.542;13.440;2023-04-24T03:23:36;13.50;99.90
2054;DHT22;1032;52.542;13.440;2023-04-24T03:26:03;13.80;99.90
2054;DHT22;1032;52.542;13.440;2023-04-24T03:28:31;13.90;99.90
2054;DHT22;1032;52.542;13.440;2023-04-24T03:31:00;13.70;99.90
2054;DHT22;1032;52.542;13.440;2023-04-24T03:33:31;13.60;99.90
2054;DHT22;1032;52.542;13.440;2023-04-24T03:36:00;14.00;99.90
2054;DHT22;1032;52.542;13.440;2023-04-24T03:38:35;13.70;99.90
2054;DHT22;1032;52.542;13.440;2023-04-24T03:41:28;14.20;99.90
2054;DHT22;1032;52.542;13.440;2023-04-24T03:44:21;13.80;99.90
2054;DHT22;1032;52.542;13.440;2023-04-24T03:46:48;13.50;99.90
2054;DHT22;1032;52.542;13.440;2023-04-24T03:49:15;13.90;99.90
2054;DHT22;1032;52.542;13.440;2023-04-24T03:51:44;13.70;99.90
2054;DHT22;1032;52.542;13.440;2023-04-24T03:54:20;14.00;99.90
2054;DHT22;1032;52.542;13.440;2023-04-24T03:56:48;14.30;99.90
2054;DHT22;1032;52.542;13.440;2023-04-24T03:59:15;13.90;99.90
2054;DHT22;1032;52.542;13.440;2023-04-24T04:01:46;13.90;99.90
2054;DHT22;1032;52.542;13.440;2023-04-24T04:04:16;13.80;99.90
2054;DHT22;1032;52.542;13.440;2023-04-24T04:06:44;13.90;99.90
2054;DHT22;1032;52.542;13.440;2023-04-24T04:09:12;14.30;99.90
2054;DHT22;1032;52.542;13.440;2023-04-24T04:11:40;13.70;99.90
2054;DHT22;1032;52.542;13.440;2023-04-24T04:14:07;13.80;99.90
2054;DHT22;1032;52.542;13.440;2023-04-24T04:16:36;13.90;99.90
2054;DHT22;1032;52.542;13.440;2023-04-24T04:19:03;13.90;99.90
2054;DHT22;1032;52.542;13.440;2023-04-24T04:21:29;13.60;99.90
2054;DHT22;1032;52.542;13.440;2023-04-24T04:24:08;13.60;99.90
2054;DHT22;1032;52.542;13.440;2023-04-24T04:26:39;13.40;99.90
2054;DHT22;1032;52.542;13.440;2023-04-24T04:29:08;13.90;99.90
2054;DHT22;1032;52.542;13.440;2023-04-24T04:31:39;14.40;99.90
2054;DHT22;1032;52.542;13.440;2023-04-24T04:34:09;13.80;99.90
2054;DHT22;1032;52.542;13.440;2023-04-24T04:36:37;14.40;99.90
2054;DHT22;1032;52.542;13.440;2023-04-24T04:39:18;13.90;99.90
2054;DHT22;1032;52.542;13.440;2023-04-24T04:42:06;14.00;99.90
2054;DHT22;1032;52.542;13.440;2023-04-24T04:44:38;14.00;99.90
2054;DHT22;1032;52.542;13.440;2023-04-24T04:47:06;14.10;99.90
2054;DHT22;1032;52.542;13.440;2023-04-24T04:49:35;13.80;99.90
2054;DHT22;1032;52.542;13.440;2023-04-24T04:52:04;14.00;99.90
2054;DHT22;1032;52.542;13.440;2023-04-24T04:54:30;14.10;99.90
2054;DHT22;1032;52.542;13.440;2023-04-24T04:56:57;14.00;99.90
2054;DHT22;1032;52.542;13.440;2023-04-24T04:59:25;13.60;99.90
2054;DHT22;1032;52.542;13.440;2023-04-24T05:01:59;14.10;99.90
2054;DHT22;1032;52.542;13.440;2023-04-24T05:04:25;14.00;99.90
2054;DHT22;1032;52.542;13.440;2023-04-24T05:06:52;14.10;99.90
2054;DHT22;1032;52.542;13.440;2023-04-24T05:09:21;14.10;99.90
2054;DHT22;1032;52.542;13.440;2023-04-24T05:12:01;14.10;99.90
2054;DHT22;1032;52.542;13.440;2023-04-24T05:14:33;13.90;99.90
2054;DHT22;1032;52.542;13.440;2023-04-24T05:17:00;14.30;99.90
2054;DHT22;1032;52.542;13.440;2023-04-24T05:19:26;14.70;99.90
2054;DHT22;1032;52.542;13.440;2023-04-24T05:21:53;14.60;99.90
2054;DHT22;1032;52.542;13.440;2023-04-24T05:24:20;14.60;99.90
2054;DHT22;1032;52.542;13.440;2023-04-24T05:27:06;14.40;99.90
2054;DHT22;1032;52.542;13.440;2023-04-24T05:29:39;14.70;99.90
2054;DHT22;1032;52.542;13.440;2023-04-24T05:32:07;14.10;99.90
2054;DHT22;1032;52.542;13.440;2023-04-24T05:34:37;14.70;99.90
2054;DHT22;1032;52.542;13.440;2023-04-24T05:37:18;14.50;99.90
2054;DHT22;1032;52.542;13.440;2023-04-24T05:39:46;14.60;99.90
2054;DHT22;1032;52.542;13.440;2023-04-24T05:42:12;14.10;99.90
2054;DHT22;1032;52.542;13.440;2023-04-24T05:44:40;14.90;99.90
2054;DHT22;1032;52.542;13.440;2023-04-24T05:47:07;15.10;99.90
2054;DHT22;1032;52.542;13.440;2023-04-24T05:49:34;15.00;99.90
2054;DHT22;1032;52.542;13.440;2023-04-24T05:52:00;15.00;99.90
2054;DHT22;1032;52.542;13.440;2023-04-24T05:54:29;15.20;99.90
2054;DHT22;1032;52.542;13.440;2023-04-24T05:56:56;15.10;99.90
2054;DHT22;1032;52.542;13.440;2023-04-24T05:59:37;15.00;99.90
2054;DHT22;1032;52.542;13.440;2023-04-24T06:02:06;15.30;99.90
2054;DHT22;1032;52.542;13.440;2023-04-24T06:04:32;14.70;99.90
2054;DHT22;1032;52.542;13.440;2023-04-24T06:06:59;15.70;99.90
2054;DHT22;1032;52.542;13.440;2023-04-24T06:09:26;15.20;99.90
2054;DHT22;1032;52.542;13.440;2023-04-24T06:11:52;15.20;99.90
2054;DHT22;1032;52.542;13.440;2023-04-24T06:14:22;15.00;99.90
2054;DHT22;1032;52.542;13.440;2023-04-24T06:17:09;15.50;99.90
2054;DHT22;1032;52.542;13.440;2023-04-24T06:19:39;15.70;99.90
2054;DHT22;1032;52.542;13.440;2023-04-24T06:22:06;15.80;99.90
2054;DHT22;1032;52.542;13.440;2023-04-24T06:24:34;16.00;99.90
2054;DHT22;1032;52.542;13.440;2023-04-24T06:27:00;16.10;99.90
2054;DHT22;1032;52.542;13.440;2023-04-24T06:29:27;15.90;99.90
2054;DHT22;1032;52.542;13.440;2023-04-24T06:31:53;15.90;99.90
2054;DHT22;1032;52.542;13.440;2023-04-24T06:34:21;15.90;99.90
2054;DHT22;1032;52.542;13.440;2023-04-24T06:36:48;16.00;99.90
2054;DHT22;1032;52.542;13.440;2023-04-24T06:39:15;16.00;99.90
2054;DHT22;1032;52.542;13.440;2023-04-24T06:41:41;15.50;99.90
2054;DHT22;1032;52.542;13.440;2023-04-24T06:44:17;15.70;99.90
2054;DHT22;1032;52.542;13.440;2023-04-24T06:46:44;15.90;99.90
2054;DHT22;1032;52.542;13.440;2023-04-24T06:49:11;16.50;99.90
2054;DHT22;1032;52.542;13.440;2023-04-24T06:51:39;16.00;99.90
2054;DHT22;1032;52.542;13.440;2023-04-24T06:54:05;16.40;99.90
2054;DHT22;1032;52.542;13.440;2023-04-24T06:56:32;16.20;99.90
2054;DHT22;1032;52.542;13.440;2023-04-24T06:58:59;16.60;99.90
2054;DHT22;1032;52.542;13.440;2023-04-24T07:01:26;16.20;99.90
2054;DHT22;1032;52.542;13.440;2023-04-24T07:03:52;16.30;99.90
2054;DHT22;1032;52.542;13.440;2023-04-24T07:06:19;16.90;99.90
2054;DHT22;1032;52.542;13.440;2023-04-24T07:08:49;16.60;99.90
2054;DHT22;1032;52.542;13.440;2023-04-24T07:11:15;17.20;99.90
2054;DHT22;1032;52.542;13.440;2023-04-24T07:13:42;17.20;99.90
2054;DHT22;1032;52.542;13.440;2023-04-24T07:16:09;17.50;99.90
2054;DHT22;1032;52.542;13.440;2023-04-24T07:18:36;17.10;99.90
2054;DHT22;1032;52.542;13.440;2023-04-24T07:21:02;17.00;99.90
2054;DHT22;1032;52.542;13.440;2023-04-24T07:23:29;17.20;99.90
2054;DHT22;1032;52.542;13.440;2023-04-24T07:25:58;17.40;99.90
2054;DHT22;1032;52.542;13.440;2023-04-24T07:28:24;16.80;99.90
2054;DHT22;1032;52.542;13.440;2023-04-24T07:30:51;17.10;99.90
2054;DHT22;1032;52.542;13.440;2023-04-24T07:33:19;17.20;99.90
2054;DHT22;1032;52.542;13.440;2023-04-24T07:35:46;17.30;99.90
2054;DHT22;1032;52.542;13.440;2023-04-24T07:38:12;17.30;99.60
2054;DHT22;1032;52.542;13.440;2023-04-24T07:40:39;17.10;99.20
2054;DHT22;1032;52.542;13.440;2023-04-24T07:43:07;17.40;99.20
2054;DHT22;1032;52.542;13.440;2023-04-24T07:45:34;17.60;98.60
2054;DHT22;1032;52.542;13.440;2023-04-24T07:48:02;17.80;98.40
2054;DHT22;1032;52.542;13.440;2023-04-24T07:50:29;17.70;97.90
2054;DHT22;1032;52.542;13.440;2023-04-24T07:52:55;17.80;97.80
2054;DHT22;1032;52.542;13.440;2023-04-24T07:55:23;17.90;97.70
2054;DHT22;1032;52.542;13.440;2023-04-24T07:57:49;17.40;97.10
2054;DHT22;1032;52.542;13.440;2023-04-24T08:00:18;17.50;97.30
2054;DHT22;1032;52.542;13.440;2023-04-24T08:02:45;17.60;97.30
2054;DHT22;1032;52.542;13.440;2023-04-24T08:05:11;17.40;97.20
2054;DHT22;1032;52.542;13.440;2023-04-24T08:07:38;17.50;97.10
2054;DHT22;1032;52.542;13.440;2023-04-24T08:10:06;17.60;96.90
2054;DHT22;1032;52.542;13.440;2023-04-24T08:12:33;17.60;96.80
2054;DHT22;1032;52.542;13.440;2023-04-24T08:14:59;17.60;96.40
2054;DHT22;1032;52.542;13.440;2023-04-24T08:17:27;17.70;96.20
2054;DHT22;1032;52.542;13.440;2023-04-24T08:19:54;17.80;96.00
2054;DHT22;1032;52.542;13.440;2023-04-24T08:22:26;18.10;95.90
2054;DHT22;1032;52.542;13.440;2023-04-24T08:24:53;18.00;95.30
2054;DHT22;1032;52.542;13.440;2023-04-24T08:27:21;18.10;94.90
2054;DHT22;1032;52.542;13.440;2023-04-24T08:29:47;18.00;94.70
2054;DHT22;1032;52.542;13.440;2023-04-24T08:32:14;17.60;94.40
2054;DHT22;1032;52.542;13.440;2023-04-24T08:34:42;18.30;94.40
2054;DHT22;1032;52.542;13.440;2023-04-24T08:37:08;18.30;94.20
2054;DHT22;1032;52.542;13.440;2023-04-24T08:39:36;18.60;93.80
2054;DHT22;1032;52.542;13.440;2023-04-24T08:42:04;18.40;93.20
2054;DHT22;1032;52.542;13.440;2023-04-24T08:44:34;18.60;93.20
2054;DHT22;1032;52.542;13.440;2023-04-24T08:47:02;18.80;92.80
2054;DHT22;1032;52.542;13.440;2023-04-24T08:49:29;18.70;92.60
2054;DHT22;1032;52.542;13.440;2023-04-24T08:51:57;18.70;91.90
2054;DHT22;1032;52.542;13.440;2023-04-24T08:54:25;18.80;91.60
2054;DHT22;1032;52.542;13.440;2023-04-24T08:56:54;19.30;91.80
2054;DHT22;1032;52.542;13.440;2023-04-24T08:59:24;19.30;91.60
2054;DHT22;1032;52.542;13.440;2023-04-24T09:01:51;19.40;91.30
2054;DHT22;1032;52.542;13.440;2023-04-24T09:04:19;19.50;91.20
2054;DHT22;1032;52.542;13.440;2023-04-24T09:06:48;19.60;90.80
2054;DHT22;1032;52.542;13.440;2023-04-24T09:09:16;19.40;90.20
2054;DHT22;1032;52.542;13.440;2023-04-24T09:11:43;19.70;90.10
2054;DHT22;1032;52.542;13.440;2023-04-24T09:14:10;19.30;90.00
2054;DHT22;1032;52.542;13.440;2023-04-24T09:16:37;19.50;90.00
2054;DHT22;1032;52.542;13.440;2023-04-24T09:19:04;19.70;89.20
2054;DHT22;1032;52.542;13.440;2023-04-24T09:21:32;19.90;88.80
2054;DHT22;1032;52.542;13.440;2023-04-24T09:23:59;19.60;88.20
2054;DHT22;1032;52.542;13.440;2023-04-24T09:26:30;19.50;87.90
2054;DHT22;1032;52.542;13.440;2023-04-24T09:28:58;19.50;86.70
2054;DHT22;1032;52.542;13.440;2023-04-24T09:31:27;19.70;87.20
2054;DHT22;1032;52.542;13.440;2023-04-24T09:33:56;19.70;88.30
2054;DHT22;1032;52.542;13.440;2023-04-24T09:36:30;19.50;89.30
2054;DHT22;1032;52.542;13.440;2023-04-24T09:38:59;19.40;90.00
2054;DHT22;1032;52.542;13.440;2023-04-24T09:41:27;19.40;90.30
2054;DHT22;1032;52.542;13.440;2023-04-24T09:43:56;19.50;90.60
2054;DHT22;1032;52.542;13.440;2023-04-24T09:46:30;19.10;90.60
2054;DHT22;1032;52.542;13.440;2023-04-24T09:48:57;19.80;91.10
2054;DHT22;1032;52.542;13.440;2023-04-24T09:51:34;19.80;91.20
2054;DHT22;1032;52.542;13.440;2023-04-24T09:54:02;19.90;90.80
2054;DHT22;1032;52.542;13.440;2023-04-24T09:56:32;19.90;91.00
2054;DHT22;1032;52.542;13.440;2023-04-24T09:59:05;19.30;90.70
2054;DHT22;1032;52.542;13.440;2023-04-24T10:01:33;19.70;90.90
2054;DHT22;1032;52.542;13.440;2023-04-24T10:04:00;19.90;90.80
2054;DHT22;1032;52.542;13.440;2023-04-24T10:06:32;19.80;90.40
2054;DHT22;1032;52.542;13.440;2023-04-24T10:08:59;19.50;89.70
2054;DHT22;1032;52.542;13.440;2023-04-24T10:11:26;20.00;89.90
2054;DHT22;1032;52.542;13.440;2023-04-24T10:13:53;20.30;89.10
2054;DHT22;1032;52.542;13.440;2023-04-24T10:16:23;20.40;89.20
2054;DHT22;1032;52.542;13.440;2023-04-24T10:18:49;20.70;88.70
2054;DHT22;1032;52.542;13.440;2023-04-24T10:21:16;20.50;88.40
2054;DHT22;1032;52.542;13.440;2023-04-24T10:23:43;20.50;87.80
2054;DHT22;1032;52.542;13.440;2023-04-24T10:26:12;20.10;86.70
2054;DHT22;1032;52.542;13.440;2023-04-24T10:28:44;20.50;86.50
2054;DHT22;1032;52.542;13.440;2023-04-24T10:31:12;20.60;86.10
2054;DHT22;1032;52.542;13.440;2023-04-24T10:33:41;20.50;85.60
2054;DHT22;1032;52.542;13.440;2023-04-24T10:36:09;20.70;85.80
2054;DHT22;1032;52.542;13.440;2023-04-24T10:38:37;20.70;85.20
2054;DHT22;1032;52.542;13.440;2023-04-24T10:41:09;20.70;85.10
2054;DHT22;1032;52.542;13.440;2023-04-24T10:43:41;20.70;85.30
2054;DHT22;1032;52.542;13.440;2023-04-24T10:46:09;20.70;85.20
2054;DHT22;1032;52.542;13.440;2023-04-24T10:48:43;20.70;85.10
2054;DHT22;1032;52.542;13.440;2023-04-24T10:51:14;20.50;85.10
2054;DHT22;1032;52.542;13.440;2023-04-24T10:53:41;20.20;84.50
2054;DHT22;1032;52.542;13.440;2023-04-24T10:56:08;19.90;84.30
2054;DHT22;1032;52.542;13.440;2023-04-24T10:58:37;20.00;84.70
2054;DHT22;1032;52.542;13.440;2023-04-24T11:01:05;20.00;85.20
2054;DHT22;1032;52.542;13.440;2023-04-24T11:03:34;20.20;85.70
2054;DHT22;1032;52.542;13.440;2023-04-24T11:06:04;19.90;85.30
2054;DHT22;1032;52.542;13.440;2023-04-24T11:08:37;20.30;85.90
2054;DHT22;1032;52.542;13.440;2023-04-24T11:11:09;19.80;85.40
2054;DHT22;1032;52.542;13.440;2023-04-24T11:14:01;20.00;86.00
2054;DHT22;1032;52.542;13.440;2023-04-24T11:16:29;20.10;85.30
2054;DHT22;1032;52.542;13.440;2023-04-24T11:19:01;20.20;84.80
2054;DHT22;1032;52.542;13.440;2023-04-24T11:21:39;20.20;84.10
2054;DHT22;1032;52.542;13.440;2023-04-24T11:24:27;20.50;83.90
2054;DHT22;1032;52.542;13.440;2023-04-24T11:26:55;20.70;83.40
2054;DHT22;1032;52.542;13.440;2023-04-24T11:29:22;20.30;82.90
2054;DHT22;1032;52.542;13.440;2023-04-24T11:31:49;20.40;82.70
2054;DHT22;1032;52.542;13.440;2023-04-24T11:34:17;20.40;82.50
2054;DHT22;1032;52.542;13.440;2023-04-24T11:36:46;20.90;83.00
2054;DHT22;1032;52.542;13.440;2023-04-24T11:39:13;20.60;82.30
2054;DHT22;1032;52.542;13.440;2023-04-24T11:41:40;20.50;82.30
2054;DHT22;1032;52.542;13.440;2023-04-24T11:44:09;20.60;82.40
2054;DHT22;1032;52.542;13.440;2023-04-24T11:46:35;20.40;82.80
2054;DHT22;1032;52.542;13.440;2023-04-24T11:49:03;20.00;84.80
2054;DHT22;1032;52.542;13.440;2023-04-24T11:51:30;19.90;87.20
2054;DHT22;1032;52.542;13.440;2023-04-24T11:53:58;19.70;89.60
2054;DHT22;1032;52.542;13.440;2023-04-24T11:56:25;19.30;89.40
2054;DHT22;1032;52.542;13.440;2023-04-24T11:58:52;19.90;90.10
2054;DHT22;1032;52.542;13.440;2023-04-24T12:01:20;19.80;90.10
2054;DHT22;1032;52.542;13.440;2023-04-24T12:03:48;19.90;90.40
2054;DHT22;1032;52.542;13.440;2023-04-24T12:06:16;19.80;90.30
2054;DHT22;1032;52.542;13.440;2023-04-24T12:08:46;20.00;90.30
2054;DHT22;1032;52.542;13.440;2023-04-24T12:11:15;19.90;90.40
2054;DHT22;1032;52.542;13.440;2023-04-24T12:13:43;20.00;90.60
2054;DHT22;1032;52.542;13.440;2023-04-24T12:16:10;20.10;90.60
2054;DHT22;1032;52.542;13.440;2023-04-24T12:18:42;20.00;90.20
2054;DHT22;1032;52.542;13.440;2023-04-24T12:21:16;19.80;90.10
2054;DHT22;1032;52.542;13.440;2023-04-24T12:23:44;19.60;90.80
2054;DHT22;1032;52.542;13.440;2023-04-24T12:26:11;19.40;90.80
2054;DHT22;1032;52.542;13.440;2023-04-24T12:28:39;19.50;91.00
2054;DHT22;1032;52.542;13.440;2023-04-24T12:31:06;19.20;91.00
2054;DHT22;1032;52.542;13.440;2023-04-24T12:33:34;19.10;91.20
2054;DHT22;1032;52.542;13.440;2023-04-24T12:36:01;19.50;91.40
2054;DHT22;1032;52.542;13.440;2023-04-24T12:38:28;19.30;90.80
2054;DHT22;1032;52.542;13.440;2023-04-24T12:41:03;19.30;90.50
2054;DHT22;1032;52.542;13.440;2023-04-24T12:43:30;19.50;88.50
2054;DHT22;1032;52.542;13.440;2023-04-24T12:45:58;19.40;82.70
2054;DHT22;1032;52.542;13.440;2023-04-24T12:48:25;19.70;80.20
2054;DHT22;1032;52.542;13.440;2023-04-24T12:50:52;19.80;79.10
2054;DHT22;1032;52.542;13.440;2023-04-24T12:53:18;19.60;78.00
2054;DHT22;1032;52.542;13.440;2023-04-24T12:55:45;20.00;76.20
2054;DHT22;1032;52.542;13.440;2023-04-24T12:58:17;19.80;74.40
2054;DHT22;1032;52.542;13.440;2023-04-24T13:00:44;19.90;72.50
2054;DHT22;1032;52.542;13.440;2023-04-24T13:03:13;20.20;72.60
2054;DHT22;1032;52.542;13.440;2023-04-24T13:05:39;20.20;72.00
2054;DHT22;1032;52.542;13.440;2023-04-24T13:08:06;20.10;69.50
2054;DHT22;1032;52.542;13.440;2023-04-24T13:10:34;20.80;68.50
2054;DHT22;1032;52.542;13.440;2023-04-24T13:13:01;20.70;66.30
2054;DHT22;1032;52.542;13.440;2023-04-24T13:15:27;20.50;64.70
2054;DHT22;1032;52.542;13.440;2023-04-24T13:17:54;20.70;62.90
2054;DHT22;1032;52.542;13.440;2023-04-24T13:20:22;20.80;63.00
2054;DHT22;1032;52.542;13.440;2023-04-24T13:22:48;20.90;62.40
2054;DHT22;1032;52.542;13.440;2023-04-24T13:25:15;20.90;61.80
2054;DHT22;1032;52.542;13.440;2023-04-24T13:27:43;20.90;61.10
2054;DHT22;1032;52.542;13.440;2023-04-24T13:30:10;21.00;61.40
2054;DHT22;1032;52.542;13.440;2023-04-24T13:32:37;21.20;61.80
2054;DHT22;1032;52.542;13.440;2023-04-24T13:35:05;21.30;60.90
2054;DHT22;1032;52.542;13.440;2023-04-24T13:37:33;21.20;59.40
2054;DHT22;1032;52.542;13.440;2023-04-24T13:39:59;21.20;59.40
2054;DHT22;1032;52.542;13.440;2023-04-24T13:42:27;21.10;59.40
2054;DHT22;1032;52.542;13.440;2023-04-24T13:44:54;21.50;59.60
2054;DHT22;1032;52.542;13.440;2023-04-24T13:47:20;21.10;59.20
2054;DHT22;1032;52.542;13.440;2023-04-24T13:49:47;20.90;58.50
2054;DHT22;1032;52.542;13.440;2023-04-24T13:52:15;20.80;58.20
2054;DHT22;1032;52.542;13.440;2023-04-24T13:54:43;21.00;58.70
2054;DHT22;1032;52.542;13.440;2023-04-24T13:57:10;20.70;58.70
2054;DHT22;1032;52.542;13.440;2023-04-24T13:59:36;20.60;57.50
2054;DHT22;1032;52.542;13.440;2023-04-24T14:02:03;20.70;57.50
2054;DHT22;1032;52.542;13.440;2023-04-24T14:04:30;20.50;57.40
2054;DHT22;1032;52.542;13.440;2023-04-24T14:06:56;20.40;57.10
2054;DHT22;1032;52.542;13.440;2023-04-24T14:09:23;20.40;57.10
2054;DHT22;1032;52.542;13.440;2023-04-24T14:11:51;20.70;57.40
2054;DHT22;1032;52.542;13.440;2023-04-24T14:14:18;21.10;57.40
2054;DHT22;1032;52.542;13.440;2023-04-24T14:16:45;20.70;56.60
2054;DHT22;1032;52.542;13.440;2023-04-24T14:19:11;20.60;56.50
2054;DHT22;1032;52.542;13.440;2023-04-24T14:21:38;20.30;56.40
2054;DHT22;1032;52.542;13.440;2023-04-24T14:24:05;20.50;56.60
2054;DHT22;1032;52.542;13.440;2023-04-24T14:26:32;20.60;56.30
2054;DHT22;1032;52.542;13.440;2023-04-24T14:29:00;20.10;55.80
2054;DHT22;1032;52.542;13.440;2023-04-24T14:31:26;20.70;57.00
2054;DHT22;1032;52.542;13.440;2023-04-24T14:33:53;20.50;56.50
2054;DHT22;1032;52.542;13.440;2023-04-24T14:36:20;20.20;56.00
2054;DHT22;1032;52.542;13.440;2023-04-24T14:38:46;20.10;55.80
2054;DHT22;1032;52.542;13.440;2023-04-24T14:41:13;20.30;56.10
2054;DHT22;1032;52.542;13.440;2023-04-24T14:43:40;20.30;55.90
2054;DHT22;1032;52.542;13.440;2023-04-24T14:46:08;20.50;55.50
2054;DHT22;1032;52.542;13.440;2023-04-24T14:48:35;20.00;54.50
2054;DHT22;1032;52.542;13.440;2023-04-24T14:51:01;20.30;54.80
2054;DHT22;1032;52.542;13.440;2023-04-24T14:53:28;20.30;54.60
2054;DHT22;1032;52.542;13.440;2023-04-24T14:55:55;20.10;54.30
2054;DHT22;1032;52.542;13.440;2023-04-24T14:58:21;20.40;54.70
2054;DHT22;1032;52.542;13.440;2023-04-24T15:00:48;20.20;55.10
2054;DHT22;1032;52.542;13.440;2023-04-24T15:03:19;20.00;55.30
2054;DHT22;1032;52.542;13.440;2023-04-24T15:05:45;20.10;55.70
2054;DHT22;1032;52.542;13.440;2023-04-24T15:08:12;20.10;56.00
2054;DHT22;1032;52.542;13.440;2023-04-24T15:10:39;20.30;56.20
2054;DHT22;1032;52.542;13.440;2023-04-24T15:13:05;20.00;56.20
2054;DHT22;1032;52.542;13.440;2023-04-24T15:15:32;19.90;56.10
2054;DHT22;1032;52.542;13.440;2023-04-24T15:17:59;20.20;56.30
2054;DHT22;1032;52.542;13.440;2023-04-24T15:20:26;20.50;56.40
2054;DHT22;1032;52.542;13.440;2023-04-24T15:22:53;20.30;56.10
2054;DHT22;1032;52.542;13.440;2023-04-24T15:25:20;20.40;55.90
2054;DHT22;1032;52.542;13.440;2023-04-24T15:27:46;20.40;55.90
2054;DHT22;1032;52.542;13.440;2023-04-24T15:30:13;20.40;55.80
2054;DHT22;1032;52.542;13.440;2023-04-24T15:32:40;20.20;55.60
2054;DHT22;1032;52.542;13.440;2023-04-24T15:35:08;20.20;55.60
2054;DHT22;1032;52.542;13.440;2023-04-24T15:37:36;19.90;55.60
2054;DHT22;1032;52.542;13.440;2023-04-24T15:40:03;20.10;56.00
2054;DHT22;1032;52.542;13.440;2023-04-24T15:42:32;19.80;55.90
2054;DHT22;1032;52.542;13.440;2023-04-24T15:44:58;19.60;55.60
2054;DHT22;1032;52.542;13.440;2023-04-24T15:47:25;19.90;55.70
2054;DHT22;1032;52.542;13.440;2023-04-24T15:49:52;19.50;55.70
2054;DHT22;1032;52.542;13.440;2023-04-24T15:52:19;19.40;56.20